PWSweather.com
Personal Weather Stations
Station Observations
AC5JC
Greenleaf Peninsula, Waco, Waco, TX 76710

Greenleaf Peninsula, WacoWaco, TX 76710

Lat: 31.565, Lon: -97.198

Elevation: 570

Station Type: Ambient WS-1400IP

http://ac5jc.dyndns.org

Latest ConditionsUpdated 1:15:00 PM CDT Tuesday, Sep 18, 2018
Currently Today's Max Today's Min Today's Average
Temperature 92.5°F33.6°C 92.5°F33.6°C 75.7°F24.3°C 81.6°F27.6°C
Dew Point 66.9°F19.4°C 73.7°F23.2°C 65.4°F18.6°C 69.7°F20.9°C
Winds 0.7 mph WNW1.1 kmh WNW 3.5 mph -5.6 kmh - - 0.5 mph 0.8 kmh
Wind Gusts 2.5 mph4.0 kmh 9.8 mph15.8 kmh - -
Humidity 43% 91% 41% 69%
Pressure 29.39 in995.3 mb 29.43 in996.6 mb 29.38 in994.9 mb -
Hour Temp Dew Point Humidity Winds Wind Gusts Pressure Precip Precip Rate Daily Precip Total
01:15 PM 92.5°F33.6°C 66.9°F19.4°C 43% 0.7 mph WNW1.1 kmh WNW 2.5 mph4.0 kmh 29.39 in995.3 mb 0.00 in0.0 mm 0.00 in0.0 mm 0.00 in0.0 mm
01:10 PM 92.4°F33.6°C 65.4°F18.6°C 41% 1.6 mph S2.6 kmh S 7.4 mph11.9 kmh 29.39 in995.3 mb 0.00 in0.0 mm 0.00 in0.0 mm 0.00 in0.0 mm
01:05 PM 92.1°F33.4°C 66.2°F19.0°C 43% 0.6 mph SSE1.0 kmh SSE 2.5 mph4.0 kmh 29.39 in995.3 mb 0.00 in0.0 mm 0.00 in0.0 mm 0.00 in0.0 mm
01:00 PM 91.9°F33.3°C 66.0°F18.9°C 43% 3.1 mph SSE5.0 kmh SSE 9.8 mph15.8 kmh 29.40 in995.6 mb 0.00 in0.0 mm 0.00 in0.0 mm 0.00 in0.0 mm
12:55 PM 91.3°F32.9°C 66.4°F19.1°C 44% 1.5 mph SW2.4 kmh SW 4.9 mph7.9 kmh 29.40 in995.6 mb 0.00 in0.0 mm 0.00 in0.0 mm 0.00 in0.0 mm
12:50 PM 90.7°F32.6°C 67.9°F19.9°C 47% 1.2 mph SW1.9 kmh SW 2.5 mph4.0 kmh 29.40 in995.6 mb 0.00 in0.0 mm 0.00 in0.0 mm 0.00 in0.0 mm
12:45 PM 90.8°F32.7°C 68.3°F20.2°C 48% 1.0 mph SSE1.6 kmh SSE 4.9 mph7.9 kmh 29.40 in995.6 mb 0.00 in0.0 mm 0.00 in0.0 mm 0.00 in0.0 mm
12:40 PM 90.9°F32.7°C 68.5°F20.3°C 48% 2.1 mph SSW3.4 kmh SSW 4.9 mph7.9 kmh 29.41 in995.9 mb 0.00 in0.0 mm 0.00 in0.0 mm 0.00 in0.0 mm
12:35 PM 90.8°F32.7°C 68.4°F20.2°C 48% 3.2 mph S5.1 kmh S 7.4 mph11.9 kmh 29.41 in995.9 mb 0.00 in0.0 mm 0.00 in0.0 mm 0.00 in0.0 mm
12:30 PM 90.9°F32.7°C 68.5°F20.3°C 48% 2.6 mph S4.2 kmh S 7.4 mph11.9 kmh 29.41 in995.9 mb 0.00 in0.0 mm 0.00 in0.0 mm 0.00 in0.0 mm
12:25 PM 91.0°F32.8°C 69.1°F20.6°C 49% 2.2 mph SE3.5 kmh SE 4.9 mph7.9 kmh 29.42 in996.3 mb 0.00 in0.0 mm 0.00 in0.0 mm 0.00 in0.0 mm
12:20 PM 91.3°F32.9°C 69.4°F20.8°C 49% 3.4 mph SSE5.5 kmh SSE 9.8 mph15.8 kmh 29.41 in995.9 mb 0.00 in0.0 mm 0.00 in0.0 mm 0.00 in0.0 mm
12:15 PM 91.2°F32.9°C 67.5°F19.7°C 46% 3.5 mph S5.6 kmh S 7.4 mph11.9 kmh 29.42 in996.3 mb 0.00 in0.0 mm 0.00 in0.0 mm 0.00 in0.0 mm
12:10 PM 90.2°F32.3°C 67.6°F19.8°C 48% 1.7 mph S2.7 kmh S 4.9 mph7.9 kmh 29.42 in996.3 mb 0.00 in0.0 mm 0.00 in0.0 mm 0.00 in0.0 mm
12:05 PM 90.0°F32.2°C 67.7°F19.8°C 48% 0.7 mph SSW1.1 kmh SSW 2.5 mph4.0 kmh 29.42 in996.3 mb 0.00 in0.0 mm 0.00 in0.0 mm 0.00 in0.0 mm
12:00 PM 89.9°F32.2°C 68.1°F20.1°C 49% 0.8 mph SW1.3 kmh SW 2.5 mph4.0 kmh 29.42 in996.3 mb 0.00 in0.0 mm 0.00 in0.0 mm 0.00 in0.0 mm
11:55 AM 89.8°F32.1°C 68.1°F20.1°C 49% 2.4 mph SSW3.9 kmh SSW 4.9 mph7.9 kmh 29.42 in996.3 mb 0.00 in0.0 mm 0.00 in0.0 mm 0.00 in0.0 mm
11:50 AM 90.0°F32.2°C 68.5°F20.3°C 49% 2.0 mph SSW3.2 kmh SSW 7.4 mph11.9 kmh 29.42 in996.3 mb 0.00 in0.0 mm 0.00 in0.0 mm 0.00 in0.0 mm
11:45 AM 90.0°F32.2°C 68.1°F20.1°C 49% 1.8 mph SSW2.9 kmh SSW 4.9 mph7.9 kmh 29.42 in996.3 mb 0.00 in0.0 mm 0.00 in0.0 mm 0.00 in0.0 mm
11:40 AM 90.1°F32.3°C 68.8°F20.4°C 50% 2.1 mph WNW3.4 kmh WNW 4.9 mph7.9 kmh 29.43 in996.6 mb 0.00 in0.0 mm 0.00 in0.0 mm 0.00 in0.0 mm
11:35 AM 90.1°F32.3°C 68.7°F20.4°C 50% 1.4 mph W2.3 kmh W 2.5 mph4.0 kmh 29.42 in996.3 mb 0.00 in0.0 mm 0.00 in0.0 mm 0.00 in0.0 mm
11:30 AM 90.3°F32.4°C 68.6°F20.3°C 49% 1.7 mph SSE2.7 kmh SSE 7.4 mph11.9 kmh 29.43 in996.6 mb 0.00 in0.0 mm 0.00 in0.0 mm 0.00 in0.0 mm
11:25 AM 90.3°F32.4°C 68.0°F20.0°C 48% 1.5 mph WSW2.4 kmh WSW 4.9 mph7.9 kmh 29.43 in996.6 mb 0.00 in0.0 mm 0.00 in0.0 mm 0.00 in0.0 mm
11:20 AM 90.3°F32.4°C 67.8°F19.9°C 48% 1.3 mph SSW2.1 kmh SSW 4.9 mph7.9 kmh 29.43 in996.6 mb 0.00 in0.0 mm 0.00 in0.0 mm 0.00 in0.0 mm
11:15 AM 90.3°F32.4°C 68.5°F20.3°C 49% 0.2 mph WSW0.3 kmh WSW 2.5 mph4.0 kmh 29.43 in996.6 mb 0.00 in0.0 mm 0.00 in0.0 mm 0.00 in0.0 mm
11:10 AM 89.8°F32.1°C 68.0°F20.0°C 49% 0.3 mph SW0.5 kmh SW 2.5 mph4.0 kmh 29.43 in996.6 mb 0.00 in0.0 mm 0.00 in0.0 mm 0.00 in0.0 mm
11:05 AM 89.8°F32.1°C 68.0°F20.0°C 49% Calm Calm -- 29.43 in996.6 mb 0.00 in0.0 mm 0.00 in0.0 mm 0.00 in0.0 mm
11:00 AM 89.8°F32.1°C 68.4°F20.2°C 50% 0.1 mph SW0.2 kmh SW 2.5 mph4.0 kmh 29.42 in996.3 mb 0.00 in0.0 mm 0.00 in0.0 mm 0.00 in0.0 mm
10:55 AM 89.8°F32.1°C 68.9°F20.5°C 50% 0.9 mph S1.4 kmh S 2.5 mph4.0 kmh 29.43 in996.6 mb 0.00 in0.0 mm 0.00 in0.0 mm 0.00 in0.0 mm
10:50 AM 88.0°F31.1°C 68.0°F20.0°C 52% 0.7 mph WSW1.1 kmh WSW 4.9 mph7.9 kmh 29.43 in996.6 mb 0.00 in0.0 mm 0.00 in0.0 mm 0.00 in0.0 mm
10:45 AM 88.0°F31.1°C 68.8°F20.4°C 53% 0.9 mph S1.4 kmh S 2.5 mph4.0 kmh 29.43 in996.6 mb 0.00 in0.0 mm 0.00 in0.0 mm 0.00 in0.0 mm
10:40 AM 88.0°F31.1°C 69.1°F20.6°C 54% 1.3 mph S2.1 kmh S 4.9 mph7.9 kmh 29.42 in996.3 mb 0.00 in0.0 mm 0.00 in0.0 mm 0.00 in0.0 mm
10:35 AM 88.0°F31.1°C 69.2°F20.7°C 54% 0.8 mph SW1.3 kmh SW 2.5 mph4.0 kmh 29.43 in996.6 mb 0.00 in0.0 mm 0.00 in0.0 mm 0.00 in0.0 mm
10:30 AM 87.6°F30.9°C 68.1°F20.1°C 52% 1.5 mph SW2.4 kmh SW 4.9 mph7.9 kmh 29.43 in996.6 mb 0.00 in0.0 mm 0.00 in0.0 mm 0.00 in0.0 mm
10:25 AM 87.3°F30.7°C 67.7°F19.8°C 52% 0.7 mph SSW1.1 kmh SSW 2.5 mph4.0 kmh 29.43 in996.6 mb 0.00 in0.0 mm 0.00 in0.0 mm 0.00 in0.0 mm
10:20 AM 87.0°F30.6°C 67.2°F19.6°C 52% 0.3 mph S0.5 kmh S 2.5 mph4.0 kmh 29.43 in996.6 mb 0.00 in0.0 mm 0.00 in0.0 mm 0.00 in0.0 mm
10:15 AM 86.9°F30.5°C 68.2°F20.1°C 54% 0.2 mph SSW0.3 kmh SSW 2.5 mph4.0 kmh 29.43 in996.6 mb 0.00 in0.0 mm 0.00 in0.0 mm 0.00 in0.0 mm
10:10 AM 84.6°F29.2°C 67.0°F19.4°C 56% Calm Calm -- 29.43 in996.6 mb 0.00 in0.0 mm 0.00 in0.0 mm 0.00 in0.0 mm
10:05 AM 84.0°F28.9°C 66.4°F19.1°C 56% 0.5 mph SW0.8 kmh SW 2.5 mph4.0 kmh 29.43 in996.6 mb 0.00 in0.0 mm 0.00 in0.0 mm 0.00 in0.0 mm
10:00 AM 83.5°F28.6°C 67.7°F19.8°C 59% Calm Calm -- 29.43 in996.6 mb 0.00 in0.0 mm 0.00 in0.0 mm 0.00 in0.0 mm
09:55 AM 83.3°F28.5°C 68.8°F20.4°C 62% 0.5 mph W0.8 kmh W 2.5 mph4.0 kmh 29.43 in996.6 mb 0.00 in0.0 mm 0.00 in0.0 mm 0.00 in0.0 mm
09:50 AM 82.9°F28.3°C 68.7°F20.4°C 62% 0.1 mph W0.2 kmh W 2.5 mph4.0 kmh 29.43 in996.6 mb 0.00 in0.0 mm 0.00 in0.0 mm 0.00 in0.0 mm
09:45 AM 82.6°F28.1°C 68.3°F20.2°C 62% 1.0 mph W1.6 kmh W 2.5 mph4.0 kmh 29.43 in996.6 mb 0.00 in0.0 mm 0.00 in0.0 mm 0.00 in0.0 mm
09:40 AM 82.4°F28.0°C 68.1°F20.1°C 62% 0.4 mph WSW0.6 kmh WSW 2.5 mph4.0 kmh 29.43 in996.6 mb 0.00 in0.0 mm 0.00 in0.0 mm 0.00 in0.0 mm
09:35 AM 82.3°F27.9°C 68.6°F20.3°C 63% 0.3 mph SW0.5 kmh SW 2.5 mph4.0 kmh 29.43 in996.6 mb 0.00 in0.0 mm 0.00 in0.0 mm 0.00 in0.0 mm
09:30 AM 81.0°F27.2°C 67.7°F19.8°C 64% 0.7 mph W1.1 kmh W 2.5 mph4.0 kmh 29.43 in996.6 mb 0.00 in0.0 mm 0.00 in0.0 mm 0.00 in0.0 mm
09:25 AM 80.9°F27.2°C 67.8°F19.9°C 65% 0.5 mph WNW0.8 kmh WNW 4.9 mph7.9 kmh 29.43 in996.6 mb 0.00 in0.0 mm 0.00 in0.0 mm 0.00 in0.0 mm
09:20 AM 80.6°F27.0°C 67.8°F19.9°C 65% 0.5 mph WSW0.8 kmh WSW 2.5 mph4.0 kmh 29.43 in996.6 mb 0.00 in0.0 mm 0.00 in0.0 mm 0.00 in0.0 mm
09:15 AM 80.6°F27.0°C 67.7°F19.8°C 65% Calm Calm 2.5 mph4.0 kmh 29.43 in996.6 mb 0.00 in0.0 mm 0.00 in0.0 mm 0.00 in0.0 mm
09:10 AM 80.4°F26.9°C 67.5°F19.7°C 65% Calm Calm -- 29.43 in996.6 mb 0.00 in0.0 mm 0.00 in0.0 mm 0.00 in0.0 mm
09:05 AM 80.4°F26.9°C 67.9°F19.9°C 66% Calm Calm -- 29.43 in996.6 mb 0.00 in0.0 mm 0.00 in0.0 mm 0.00 in0.0 mm
09:00 AM 80.2°F26.8°C 67.2°F19.6°C 64% Calm Calm -- 29.43 in996.6 mb 0.00 in0.0 mm 0.00 in0.0 mm 0.00 in0.0 mm
08:55 AM 80.1°F26.7°C 67.8°F19.9°C 66% Calm Calm -- 29.43 in996.6 mb 0.00 in0.0 mm 0.00 in0.0 mm 0.00 in0.0 mm
08:50 AM 79.4°F26.3°C 68.3°F20.2°C 69% Calm Calm -- 29.43 in996.6 mb 0.00 in0.0 mm 0.00 in0.0 mm 0.00 in0.0 mm
08:45 AM 79.2°F26.2°C 68.3°F20.2°C 69% Calm Calm -- 29.43 in996.6 mb 0.00 in0.0 mm 0.00 in0.0 mm 0.00 in0.0 mm
08:40 AM 79.2°F26.2°C 68.7°F20.4°C 70% Calm Calm -- 29.43 in996.6 mb 0.00 in0.0 mm 0.00 in0.0 mm 0.00 in0.0 mm
08:35 AM 79.2°F26.2°C 69.1°F20.6°C 71% 0.6 mph W1.0 kmh W 2.5 mph4.0 kmh 29.43 in996.6 mb 0.00 in0.0 mm 0.00 in0.0 mm 0.00 in0.0 mm
08:30 AM 78.0°F25.6°C 68.7°F20.4°C 73% Calm Calm -- 29.42 in996.3 mb 0.00 in0.0 mm 0.00 in0.0 mm 0.00 in0.0 mm
08:25 AM 77.4°F25.2°C 68.1°F20.1°C 73% 0.4 mph W0.6 kmh W 2.5 mph4.0 kmh 29.43 in996.6 mb 0.00 in0.0 mm 0.00 in0.0 mm 0.00 in0.0 mm
08:20 AM 77.2°F25.1°C 68.4°F20.2°C 74% Calm Calm -- 29.43 in996.6 mb 0.00 in0.0 mm 0.00 in0.0 mm 0.00 in0.0 mm
08:15 AM 77.2°F25.1°C 69.0°F20.6°C 76% Calm Calm -- 29.42 in996.3 mb 0.00 in0.0 mm 0.00 in0.0 mm 0.00 in0.0 mm
08:10 AM 77.2°F25.1°C 69.4°F20.8°C 77% Calm Calm -- 29.42 in996.3 mb 0.00 in0.0 mm 0.00 in0.0 mm 0.00 in0.0 mm
08:05 AM 77.2°F25.1°C 69.8°F21.0°C 78% Calm Calm 2.5 mph4.0 kmh 29.42 in996.3 mb 0.00 in0.0 mm 0.00 in0.0 mm 0.00 in0.0 mm
08:00 AM 77.2°F25.1°C 70.4°F21.3°C 80% Calm Calm 2.5 mph4.0 kmh 29.42 in996.3 mb 0.00 in0.0 mm 0.00 in0.0 mm 0.00 in0.0 mm
07:55 AM 77.2°F25.1°C 70.8°F21.6°C 81% Calm Calm -- 29.41 in995.9 mb 0.00 in0.0 mm 0.00 in0.0 mm 0.00 in0.0 mm
07:50 AM 76.9°F24.9°C 70.9°F21.6°C 82% Calm Calm -- 29.41 in995.9 mb 0.00 in0.0 mm 0.00 in0.0 mm 0.00 in0.0 mm
07:45 AM 76.8°F24.9°C 71.4°F21.9°C 83% Calm Calm -- 29.41 in995.9 mb 0.00 in0.0 mm 0.00 in0.0 mm 0.00 in0.0 mm
07:40 AM 76.8°F24.9°C 71.8°F22.1°C 85% Calm Calm -- 29.41 in995.9 mb 0.00 in0.0 mm 0.00 in0.0 mm 0.00 in0.0 mm
07:35 AM 76.8°F24.9°C 71.9°F22.2°C 85% Calm Calm -- 29.41 in995.9 mb 0.00 in0.0 mm 0.00 in0.0 mm 0.00 in0.0 mm
07:30 AM 76.6°F24.8°C 72.1°F22.3°C 86% Calm Calm -- 29.41 in995.9 mb 0.00 in0.0 mm 0.00 in0.0 mm 0.00 in0.0 mm
07:25 AM 76.6°F24.8°C 72.1°F22.3°C 86% Calm Calm -- 29.41 in995.9 mb 0.00 in0.0 mm 0.00 in0.0 mm 0.00 in0.0 mm
07:20 AM 76.6°F24.8°C 72.1°F22.3°C 86% Calm Calm -- 29.41 in995.9 mb 0.00 in0.0 mm 0.00 in0.0 mm 0.00 in0.0 mm
07:15 AM 76.6°F24.8°C 72.1°F22.3°C 86% Calm Calm -- 29.40 in995.6 mb 0.00 in0.0 mm 0.00 in0.0 mm 0.00 in0.0 mm
07:10 AM 76.6°F24.8°C 71.9°F22.2°C 86% Calm Calm -- 29.41 in995.9 mb 0.00 in0.0 mm 0.00 in0.0 mm 0.00 in0.0 mm
07:05 AM 76.7°F24.8°C 72.0°F22.2°C 85% Calm Calm -- 29.41 in995.9 mb 0.00 in0.0 mm 0.00 in0.0 mm 0.00 in0.0 mm
07:00 AM 76.8°F24.9°C 72.3°F22.4°C 86% Calm Calm -- 29.41 in995.9 mb 0.00 in0.0 mm 0.00 in0.0 mm 0.00 in0.0 mm
06:55 AM 76.8°F24.9°C 72.3°F22.4°C 86% Calm Calm -- 29.40 in995.6 mb 0.00 in0.0 mm 0.00 in0.0 mm 0.00 in0.0 mm
06:50 AM 76.7°F24.8°C 72.1°F22.3°C 86% Calm Calm -- 29.40 in995.6 mb 0.00 in0.0 mm 0.00 in0.0 mm 0.00 in0.0 mm
06:45 AM 76.5°F24.7°C 72.4°F22.4°C 87% Calm Calm -- 29.40 in995.6 mb 0.00 in0.0 mm 0.00 in0.0 mm 0.00 in0.0 mm
06:40 AM 76.5°F24.7°C 72.8°F22.7°C 88% Calm Calm -- 29.40 in995.6 mb 0.00 in0.0 mm 0.00 in0.0 mm 0.00 in0.0 mm
06:35 AM 76.5°F24.7°C 73.2°F22.9°C 90% Calm Calm -- 29.39 in995.3 mb 0.00 in0.0 mm 0.00 in0.0 mm 0.00 in0.0 mm
06:30 AM 76.1°F24.5°C 73.2°F22.9°C 91% Calm Calm -- 29.40 in995.6 mb 0.00 in0.0 mm 0.00 in0.0 mm 0.00 in0.0 mm
06:25 AM 75.7°F24.3°C 72.9°F22.7°C 91% Calm Calm -- 29.40 in995.6 mb 0.00 in0.0 mm 0.00 in0.0 mm 0.00 in0.0 mm
06:20 AM 75.7°F24.3°C 72.9°F22.7°C 91% Calm Calm -- 29.39 in995.3 mb 0.00 in0.0 mm 0.00 in0.0 mm 0.00 in0.0 mm
06:15 AM 75.7°F24.3°C 72.9°F22.7°C 91% Calm Calm -- 29.40 in995.6 mb 0.00 in0.0 mm 0.00 in0.0 mm 0.00 in0.0 mm
06:10 AM 75.9°F24.4°C 73.0°F22.8°C 91% Calm Calm -- 29.40 in995.6 mb 0.00 in0.0 mm 0.00 in0.0 mm 0.00 in0.0 mm
06:05 AM 76.2°F24.6°C 73.4°F23.0°C 91% Calm Calm -- 29.39 in995.3 mb 0.00 in0.0 mm 0.00 in0.0 mm 0.00 in0.0 mm
06:00 AM 76.3°F24.6°C 73.5°F23.1°C 91% Calm Calm -- 29.39 in995.3 mb 0.00 in0.0 mm 0.00 in0.0 mm 0.00 in0.0 mm
05:55 AM 76.3°F24.6°C 73.5°F23.1°C 91% Calm Calm -- 29.39 in995.3 mb 0.00 in0.0 mm 0.00 in0.0 mm 0.00 in0.0 mm
05:50 AM 76.7°F24.8°C 73.5°F23.1°C 90% Calm Calm -- 29.39 in995.3 mb 0.00 in0.0 mm 0.00 in0.0 mm 0.00 in0.0 mm
05:45 AM 77.0°F25.0°C 73.7°F23.2°C 90% Calm Calm -- 29.39 in995.3 mb 0.00 in0.0 mm 0.00 in0.0 mm 0.00 in0.0 mm
05:40 AM 77.0°F25.0°C 73.5°F23.1°C 89% Calm Calm -- 29.39 in995.3 mb 0.00 in0.0 mm 0.00 in0.0 mm 0.00 in0.0 mm
05:35 AM 77.0°F25.0°C 73.5°F23.1°C 89% Calm Calm -- 29.39 in995.3 mb 0.00 in0.0 mm 0.00 in0.0 mm 0.00 in0.0 mm
05:30 AM 77.0°F25.0°C 73.5°F23.1°C 89% Calm Calm -- 29.39 in995.3 mb 0.00 in0.0 mm 0.00 in0.0 mm 0.00 in0.0 mm
05:25 AM 76.9°F24.9°C 73.6°F23.1°C 90% Calm Calm -- 29.39 in995.3 mb 0.00 in0.0 mm 0.00 in0.0 mm 0.00 in0.0 mm
05:20 AM 77.0°F25.0°C 73.6°F23.1°C 89% Calm Calm -- 29.39 in995.3 mb 0.00 in0.0 mm 0.00 in0.0 mm 0.00 in0.0 mm
05:15 AM 77.0°F25.0°C 73.4°F23.0°C 89% Calm Calm -- 29.39 in995.3 mb 0.00 in0.0 mm 0.00 in0.0 mm 0.00 in0.0 mm
05:10 AM 77.0°F25.0°C 73.3°F22.9°C 88% Calm Calm -- 29.38 in994.9 mb 0.00 in0.0 mm 0.00 in0.0 mm 0.00 in0.0 mm
05:05 AM 76.5°F24.7°C 73.0°F22.8°C 89% Calm Calm -- 29.39 in995.3 mb 0.00 in0.0 mm 0.00 in0.0 mm 0.00 in0.0 mm
05:00 AM 76.5°F24.7°C 73.3°F22.9°C 90% Calm Calm -- 29.39 in995.3 mb 0.00 in0.0 mm 0.00 in0.0 mm 0.00 in0.0 mm
04:55 AM 76.5°F24.7°C 73.1°F22.8°C 89% Calm Calm -- 29.39 in995.3 mb 0.00 in0.0 mm 0.00 in0.0 mm 0.00 in0.0 mm
04:50 AM 76.5°F24.7°C 72.7°F22.6°C 88% Calm Calm -- 29.39 in995.3 mb 0.00 in0.0 mm 0.00 in0.0 mm 0.00 in0.0 mm
04:45 AM 77.0°F25.0°C 73.1°F22.8°C 88% Calm Calm -- 29.39 in995.3 mb 0.00 in0.0 mm 0.00 in0.0 mm 0.00 in0.0 mm
04:40 AM 77.0°F25.0°C 72.8°F22.7°C 87% Calm Calm -- 29.39 in995.3 mb 0.00 in0.0 mm 0.00 in0.0 mm 0.00 in0.0 mm
04:35 AM 77.2°F25.1°C 72.6°F22.6°C 86% Calm Calm -- 29.38 in994.9 mb 0.00 in0.0 mm 0.00 in0.0 mm 0.00 in0.0 mm
04:30 AM 77.2°F25.1°C 72.5°F22.5°C 85% Calm Calm -- 29.38 in994.9 mb 0.00 in0.0 mm 0.00 in0.0 mm 0.00 in0.0 mm
04:25 AM 77.2°F25.1°C 72.3°F22.4°C 85% Calm Calm -- 29.38 in994.9 mb 0.00 in0.0 mm 0.00 in0.0 mm 0.00 in0.0 mm
04:20 AM 77.2°F25.1°C 72.0°F22.2°C 84% Calm Calm -- 29.38 in994.9 mb 0.00 in0.0 mm 0.00 in0.0 mm 0.00 in0.0 mm
04:15 AM 77.2°F25.1°C 71.7°F22.1°C 83% Calm Calm -- 29.38 in994.9 mb 0.00 in0.0 mm 0.00 in0.0 mm 0.00 in0.0 mm
04:10 AM 77.2°F25.1°C 71.3°F21.8°C 82% Calm Calm -- 29.38 in994.9 mb 0.00 in0.0 mm 0.00 in0.0 mm 0.00 in0.0 mm
04:05 AM 77.5°F25.3°C 70.6°F21.4°C 79% Calm Calm -- 29.38 in994.9 mb 0.00 in0.0 mm 0.00 in0.0 mm 0.00 in0.0 mm
04:00 AM 77.5°F25.3°C 69.9°F21.1°C 78% Calm Calm -- 29.38 in994.9 mb 0.00 in0.0 mm 0.00 in0.0 mm 0.00 in0.0 mm
03:55 AM 77.5°F25.3°C 69.7°F20.9°C 77% Calm Calm -- 29.38 in994.9 mb 0.00 in0.0 mm 0.00 in0.0 mm 0.00 in0.0 mm
03:50 AM 77.5°F25.3°C 69.3°F20.7°C 76% Calm Calm -- 29.38 in994.9 mb 0.00 in0.0 mm 0.00 in0.0 mm 0.00 in0.0 mm
03:45 AM 77.2°F25.1°C 68.6°F20.3°C 75% Calm Calm -- 29.39 in995.3 mb 0.00 in0.0 mm 0.00 in0.0 mm 0.00 in0.0 mm
03:40 AM 77.2°F25.1°C 68.9°F20.5°C 76% Calm Calm -- 29.39 in995.3 mb 0.00 in0.0 mm 0.00 in0.0 mm 0.00 in0.0 mm
03:35 AM 77.2°F25.1°C 69.0°F20.6°C 76% Calm Calm -- 29.38 in994.9 mb 0.00 in0.0 mm 0.00 in0.0 mm 0.00 in0.0 mm
03:30 AM 77.2°F25.1°C 69.0°F20.6°C 76% Calm Calm -- 29.38 in994.9 mb 0.00 in0.0 mm 0.00 in0.0 mm 0.00 in0.0 mm
03:25 AM 77.9°F25.5°C 69.7°F20.9°C 76% Calm Calm -- 29.38 in994.9 mb 0.00 in0.0 mm 0.00 in0.0 mm 0.00 in0.0 mm
03:20 AM 78.1°F25.6°C 69.5°F20.8°C 75% Calm Calm -- 29.38 in994.9 mb 0.00 in0.0 mm 0.00 in0.0 mm 0.00 in0.0 mm
03:15 AM 78.3°F25.7°C 69.4°F20.8°C 74% Calm Calm -- 29.38 in994.9 mb 0.00 in0.0 mm 0.00 in0.0 mm 0.00 in0.0 mm
03:10 AM 78.5°F25.8°C 69.5°F20.8°C 74% Calm Calm -- 29.38 in994.9 mb 0.00 in0.0 mm 0.00 in0.0 mm 0.00 in0.0 mm
03:05 AM 79.0°F26.1°C 69.6°F20.9°C 73% Calm Calm -- 29.38 in994.9 mb 0.00 in0.0 mm 0.00 in0.0 mm 0.00 in0.0 mm
03:00 AM 79.2°F26.2°C 69.5°F20.8°C 72% Calm Calm -- 29.39 in995.3 mb 0.00 in0.0 mm 0.00 in0.0 mm 0.00 in0.0 mm
02:55 AM 79.2°F26.2°C 69.0°F20.6°C 71% Calm Calm -- 29.39 in995.3 mb 0.00 in0.0 mm 0.00 in0.0 mm 0.00 in0.0 mm
02:50 AM 79.3°F26.3°C 69.0°F20.6°C 71% Calm Calm -- 29.39 in995.3 mb 0.00 in0.0 mm 0.00 in0.0 mm 0.00 in0.0 mm
02:45 AM 79.9°F26.6°C 69.3°F20.7°C 70% Calm Calm -- 29.38 in994.9 mb 0.00 in0.0 mm 0.00 in0.0 mm 0.00 in0.0 mm
02:40 AM 80.2°F26.8°C 69.5°F20.8°C 70% Calm Calm -- 29.38 in994.9 mb 0.00 in0.0 mm 0.00 in0.0 mm 0.00 in0.0 mm
02:35 AM 80.2°F26.8°C 69.5°F20.8°C 70% Calm Calm -- 29.38 in994.9 mb 0.00 in0.0 mm 0.00 in0.0 mm 0.00 in0.0 mm
02:30 AM 80.2°F26.8°C 69.3°F20.7°C 70% 0.3 mph S0.5 kmh S 2.5 mph4.0 kmh 29.38 in994.9 mb 0.00 in0.0 mm 0.00 in0.0 mm 0.00 in0.0 mm
02:25 AM 80.6°F27.0°C 69.3°F20.7°C 69% 0.2 mph S0.3 kmh S 2.5 mph4.0 kmh 29.39 in995.3 mb 0.00 in0.0 mm 0.00 in0.0 mm 0.00 in0.0 mm
02:20 AM 80.6°F27.0°C 69.5°F20.8°C 69% 0.1 mph S0.2 kmh S 2.5 mph4.0 kmh 29.39 in995.3 mb 0.00 in0.0 mm 0.00 in0.0 mm 0.00 in0.0 mm
02:15 AM 80.6°F27.0°C 69.2°F20.7°C 68% 0.1 mph S0.2 kmh S 2.5 mph4.0 kmh 29.38 in994.9 mb 0.00 in0.0 mm 0.00 in0.0 mm 0.00 in0.0 mm
02:10 AM 80.7°F27.1°C 69.2°F20.7°C 68% 0.2 mph S0.3 kmh S 2.5 mph4.0 kmh 29.39 in995.3 mb 0.00 in0.0 mm 0.00 in0.0 mm 0.00 in0.0 mm
02:05 AM 81.0°F27.2°C 69.5°F20.8°C 68% Calm Calm -- 29.39 in995.3 mb 0.00 in0.0 mm 0.00 in0.0 mm 0.00 in0.0 mm
02:00 AM 81.1°F27.3°C 69.2°F20.7°C 67% 0.1 mph S0.2 kmh S 2.5 mph4.0 kmh 29.39 in995.3 mb 0.00 in0.0 mm 0.00 in0.0 mm 0.00 in0.0 mm
01:55 AM 81.1°F27.3°C 69.1°F20.6°C 67% Calm Calm 2.5 mph4.0 kmh 29.38 in994.9 mb 0.00 in0.0 mm 0.00 in0.0 mm 0.00 in0.0 mm
01:50 AM 81.3°F27.4°C 68.9°F20.5°C 66% Calm Calm -- 29.39 in995.3 mb 0.00 in0.0 mm 0.00 in0.0 mm 0.00 in0.0 mm
01:45 AM 81.3°F27.4°C 68.8°F20.4°C 66% Calm Calm -- 29.39 in995.3 mb 0.00 in0.0 mm 0.00 in0.0 mm 0.00 in0.0 mm
01:40 AM 81.3°F27.4°C 68.8°F20.4°C 66% 0.3 mph SW0.5 kmh SW 2.5 mph4.0 kmh 29.39 in995.3 mb 0.00 in0.0 mm 0.00 in0.0 mm 0.00 in0.0 mm
01:35 AM 81.3°F27.4°C 68.8°F20.4°C 66% Calm Calm -- 29.38 in994.9 mb 0.00 in0.0 mm 0.00 in0.0 mm 0.00 in0.0 mm
01:30 AM 81.3°F27.4°C 68.6°F20.3°C 65% Calm Calm -- 29.39 in995.3 mb 0.00 in0.0 mm 0.00 in0.0 mm 0.00 in0.0 mm
01:25 AM 81.6°F27.6°C 68.7°F20.4°C 65% Calm Calm -- 29.39 in995.3 mb 0.00 in0.0 mm 0.00 in0.0 mm 0.00 in0.0 mm
01:20 AM 81.7°F27.6°C 68.6°F20.3°C 65% 0.9 mph S1.4 kmh S 2.5 mph4.0 kmh 29.39 in995.3 mb 0.00 in0.0 mm 0.00 in0.0 mm 0.00 in0.0 mm
01:15 AM 81.7°F27.6°C 68.3°F20.2°C 64% 1.0 mph S1.6 kmh S 2.5 mph4.0 kmh 29.39 in995.3 mb 0.00 in0.0 mm 0.00 in0.0 mm 0.00 in0.0 mm
01:10 AM 81.8°F27.7°C 68.5°F20.3°C 64% 1.7 mph S2.7 kmh S 2.5 mph4.0 kmh 29.39 in995.3 mb 0.00 in0.0 mm 0.00 in0.0 mm 0.00 in0.0 mm
01:05 AM 81.9°F27.7°C 68.5°F20.3°C 64% 1.5 mph S2.4 kmh S 4.9 mph7.9 kmh 29.39 in995.3 mb 0.00 in0.0 mm 0.00 in0.0 mm 0.00 in0.0 mm
01:00 AM 81.9°F27.7°C 68.5°F20.3°C 64% 1.6 mph SSE2.6 kmh SSE 2.5 mph4.0 kmh 29.39 in995.3 mb 0.00 in0.0 mm 0.00 in0.0 mm 0.00 in0.0 mm
12:55 AM 81.9°F27.7°C 68.5°F20.3°C 64% 1.5 mph S2.4 kmh S 2.5 mph4.0 kmh 29.39 in995.3 mb 0.00 in0.0 mm 0.00 in0.0 mm 0.00 in0.0 mm
12:50 AM 81.9°F27.7°C 68.0°F20.0°C 63% 1.4 mph S2.3 kmh S 2.5 mph4.0 kmh 29.39 in995.3 mb 0.00 in0.0 mm 0.00 in0.0 mm 0.00 in0.0 mm
12:45 AM 82.2°F27.9°C 68.4°F20.2°C 63% 1.2 mph S1.9 kmh S 2.5 mph4.0 kmh 29.39 in995.3 mb 0.00 in0.0 mm 0.00 in0.0 mm 0.00 in0.0 mm
12:40 AM 82.6°F28.1°C 68.7°F20.4°C 63% 1.7 mph S2.7 kmh S 4.9 mph7.9 kmh 29.39 in995.3 mb 0.00 in0.0 mm 0.00 in0.0 mm 0.00 in0.0 mm
12:35 AM 82.6°F28.1°C 68.7°F20.4°C 63% 1.3 mph S2.1 kmh S 4.9 mph7.9 kmh 29.39 in995.3 mb 0.00 in0.0 mm 0.00 in0.0 mm 0.00 in0.0 mm
12:30 AM 82.7°F28.2°C 68.3°F20.2°C 62% Calm Calm -- 29.39 in995.3 mb 0.00 in0.0 mm 0.00 in0.0 mm 0.00 in0.0 mm
12:25 AM 83.0°F28.3°C 68.3°F20.2°C 62% 0.8 mph SSE1.3 kmh SSE 2.5 mph4.0 kmh 29.40 in995.6 mb 0.00 in0.0 mm 0.00 in0.0 mm 0.00 in0.0 mm
12:20 AM 83.1°F28.4°C 68.2°F20.1°C 61% 0.8 mph SSE1.3 kmh SSE 2.5 mph4.0 kmh 29.39 in995.3 mb 0.00 in0.0 mm 0.00 in0.0 mm 0.00 in0.0 mm
12:15 AM 83.1°F28.4°C 67.9°F19.9°C 60% 0.6 mph S1.0 kmh S 2.5 mph4.0 kmh 29.39 in995.3 mb 0.00 in0.0 mm 0.00 in0.0 mm 0.00 in0.0 mm
12:10 AM 83.1°F28.4°C 67.7°F19.8°C 60% 1.3 mph S2.1 kmh S 4.9 mph7.9 kmh 29.39 in995.3 mb 0.00 in0.0 mm 0.00 in0.0 mm 0.00 in0.0 mm
12:05 AM 83.2°F28.4°C 67.9°F19.9°C 60% 1.8 mph S2.9 kmh S 4.9 mph7.9 kmh 29.39 in995.3 mb 0.00 in0.0 mm 0.00 in0.0 mm 0.00 in0.0 mm
12:00 AM 83.3°F28.5°C 68.2°F20.1°C 61% 2.5 mph S4.0 kmh S 7.4 mph11.9 kmh 29.39 in995.3 mb 0.00 in0.0 mm 0.00 in0.0 mm 0.00 in0.0 mm